createdAt,value
2023-10-14T00:05:03.685Z,96.49
2023-10-14T00:10:13.866Z,96.13
2023-10-14T00:15:23.540Z,96.94
2023-10-14T00:20:36.128Z,97.25
2023-10-14T00:25:44.861Z,96.79
2023-10-14T00:30:56.946Z,96.45
2023-10-14T00:36:12.193Z,97.37
2023-10-14T00:41:19.744Z,97.79
2023-10-14T00:46:33.193Z,97.98
2023-10-14T00:51:44.711Z,98.39
2023-10-14T00:56:51.994Z,98.83
2023-10-14T01:02:00.355Z,98.81
2023-10-14T01:07:14.601Z,98.59
2023-10-14T01:12:27.779Z,98.57
2023-10-14T01:23:31.321Z,98.15
2023-10-14T01:28:43.489Z,97.74
2023-10-14T01:33:47.812Z,98.56
2023-10-14T01:48:54.444Z,98.54
2023-10-14T01:54:02.332Z,98.97
2023-10-14T01:59:11.389Z,99.32
2023-10-14T02:04:19.467Z,98.74
2023-10-14T02:09:31.319Z,98.37
2023-10-14T02:14:46.197Z,98.64
2023-10-14T02:19:54.530Z,98.73
2023-10-14T02:25:04.178Z,99.65
2023-10-14T02:30:13.425Z,99.52
2023-10-14T02:35:20.881Z,98.52
2023-10-14T02:40:28.441Z,97.94
2023-10-14T02:45:41.184Z,97.67
2023-10-14T02:50:52.481Z,97.54
2023-10-14T02:56:06.689Z,98.58
2023-10-14T03:01:14.684Z,98.35
2023-10-14T03:06:22.082Z,97.74
2023-10-14T03:11:32.692Z,98.28
2023-10-14T03:16:40.393Z,99.35
2023-10-14T03:22:00.278Z,99.15
2023-10-14T03:27:08.814Z,98.88
2023-10-14T03:32:17.640Z,99.09
2023-10-14T03:37:27.366Z,99.57
2023-10-14T03:42:35.133Z,99.91
2023-10-14T03:47:43.474Z,100.00
2023-10-14T03:52:51.046Z,99.96
2023-10-14T03:58:05.415Z,100.00
2023-10-14T04:03:14.597Z,99.84
2023-10-14T04:08:31.370Z,99.88
2023-10-14T04:13:42.215Z,100.00
2023-10-14T04:18:49.821Z,99.94
2023-10-14T04:24:11.850Z,99.30
2023-10-14T04:29:36.027Z,99.88
2023-10-14T04:34:45.963Z,100.00
2023-10-14T04:40:00.179Z,99.94
2023-10-14T04:45:14.847Z,100.00
2023-10-14T04:50:24.604Z,99.83
2023-10-14T04:55:37.077Z,99.96
2023-10-14T05:00:47.540Z,99.35
2023-10-14T05:05:57.726Z,98.68
2023-10-14T05:11:05.406Z,97.92
2023-10-14T05:16:17.924Z,98.97
2023-10-14T05:21:36.948Z,100.00
2023-10-14T05:26:47.561Z,100.00
2023-10-14T05:31:55.257Z,100.00
2023-10-14T05:48:10.480Z,99.53
2023-10-14T05:53:18.341Z,99.59
2023-10-14T05:58:29.534Z,99.57
2023-10-14T06:03:37.718Z,99.99
2023-10-14T06:08:47.892Z,99.78
2023-10-14T06:13:55.428Z,100.00
2023-10-14T06:19:06.383Z,100.00
2023-10-14T06:24:14.854Z,100.00
2023-10-14T06:29:22.477Z,100.00
2023-10-14T06:34:33.342Z,100.00
2023-10-14T06:39:42.051Z,100.00
2023-10-14T06:44:49.746Z,100.00
2023-10-14T06:49:57.312Z,100.00
2023-10-14T06:55:08.755Z,100.00
2023-10-14T07:00:27.077Z,100.00
2023-10-14T07:05:44.584Z,100.00
2023-10-14T07:10:52.879Z,99.53
2023-10-14T07:16:06.238Z,99.34
2023-10-14T07:21:15.398Z,97.19
2023-10-14T07:26:23.789Z,95.73
2023-10-14T07:31:32.969Z,94.71
2023-10-14T07:36:40.527Z,94.35
2023-10-14T07:41:53.832Z,92.08
2023-10-14T07:47:06.966Z,88.22
2023-10-14T07:52:17.103Z,85.60
2023-10-14T07:57:24.583Z,83.53
2023-10-14T08:02:32.891Z,81.99
2023-10-14T08:07:44.103Z,80.99
2023-10-14T08:12:55.164Z,80.32
2023-10-14T08:18:06.102Z,79.23
2023-10-14T08:23:14.481Z,79.05
2023-10-14T08:28:22.638Z,78.57
2023-10-14T08:33:31.079Z,76.95
2023-10-14T08:38:39.243Z,75.49
2023-10-14T08:43:51.489Z,73.51
2023-10-14T08:49:02.710Z,71.33
2023-10-14T08:54:12.595Z,69.39
2023-10-14T08:59:20.577Z,68.04
2023-10-14T09:04:32.340Z,66.81
2023-10-14T09:09:39.877Z,65.49
2023-10-14T09:14:47.373Z,65.43
2023-10-14T09:23:34.500Z,65.39
2023-10-14T09:28:43.080Z,64.48
2023-10-14T09:33:54.437Z,64.38
2023-10-14T09:39:12.950Z,63.85
2023-10-14T09:44:21.355Z,63.36
2023-10-14T09:49:30.349Z,62.16
2023-10-14T09:54:39.290Z,62.26
2023-10-14T09:59:48.635Z,62.05
2023-10-14T10:04:59.417Z,62.42
2023-10-14T10:10:20.551Z,61.73
2023-10-14T10:15:37.054Z,59.85
2023-10-14T10:20:55.427Z,58.63
2023-10-14T10:26:04.554Z,58.48
2023-10-14T10:31:19.233Z,58.61
2023-10-14T10:36:29.445Z,57.01
2023-10-14T10:41:39.750Z,57.72
2023-10-14T10:46:50.667Z,57.90
2023-10-14T10:52:15.553Z,58.17
2023-10-14T10:57:26.141Z,58.55
2023-10-14T11:02:35.554Z,58.67
2023-10-14T11:07:45.549Z,57.92
2023-10-14T11:12:56.237Z,57.87
2023-10-14T11:18:05.202Z,57.21
2023-10-14T11:23:13.587Z,56.89
2023-10-14T11:28:28.949Z,56.68
2023-10-14T11:33:38.357Z,56.33
2023-10-14T11:38:51.076Z,55.64
2023-10-14T11:43:58.889Z,56.00
2023-10-14T11:49:10.724Z,56.03
2023-10-14T11:54:19.147Z,55.37
2023-10-14T11:59:26.787Z,56.47
2023-10-14T12:04:35.236Z,56.51
2023-10-14T12:09:43.547Z,56.11
2023-10-14T12:14:51.371Z,56.64
2023-10-14T12:19:59.228Z,56.85
2023-10-14T12:25:07.445Z,57.13
2023-10-14T12:30:29.900Z,57.25
2023-10-14T12:35:41.623Z,57.58
2023-10-14T12:40:51.408Z,57.88
2023-10-14T12:46:11.167Z,57.96
2023-10-14T12:51:23.597Z,58.05
2023-10-14T12:56:31.843Z,58.68
2023-10-14T13:01:39.379Z,58.73
2023-10-14T13:06:47.246Z,59.02
2023-10-14T13:11:57.097Z,58.57
2023-10-14T13:17:04.563Z,59.46
2023-10-14T13:23:26.576Z,60.08
2023-10-14T13:28:34.203Z,60.28
2023-10-14T13:33:43.423Z,60.83
2023-10-14T13:38:51.546Z,61.46
2023-10-14T13:43:59.019Z,61.58
2023-10-14T13:49:06.376Z,61.09
2023-10-14T13:54:13.534Z,61.08
2023-10-14T13:59:23.887Z,61.28
2023-10-14T14:04:34.641Z,61.67
2023-10-14T14:09:42.546Z,61.77
2023-10-14T14:14:49.863Z,61.79
2023-10-14T14:23:26.400Z,61.71
2023-10-14T14:28:34.152Z,61.47
2023-10-14T14:33:42.408Z,61.61
2023-10-14T14:38:50.221Z,62.37
2023-10-14T14:43:59.143Z,62.87
2023-10-14T14:49:11.641Z,63.34
2023-10-14T14:54:20.301Z,63.57
2023-10-14T14:59:28.190Z,64.10
2023-10-14T15:04:37.511Z,64.68
2023-10-14T15:09:46.327Z,65.08
2023-10-14T15:15:00.298Z,64.62
2023-10-14T15:23:26.072Z,64.81
2023-10-14T15:28:33.918Z,64.56
2023-10-14T15:33:41.478Z,64.35
2023-10-14T15:38:52.638Z,63.93
2023-10-14T15:44:00.167Z,64.40
2023-10-14T15:49:10.922Z,64.74
2023-10-14T15:54:18.771Z,64.72
2023-10-14T15:59:26.324Z,65.17
2023-10-14T16:04:34.023Z,65.45
2023-10-14T16:09:42.655Z,65.57
2023-10-14T16:14:50.613Z,65.88
2023-10-14T16:19:58.505Z,66.20
2023-10-14T16:25:07.319Z,66.55
2023-10-14T16:30:18.766Z,66.57
2023-10-14T16:35:29.651Z,67.00
2023-10-14T16:40:37.991Z,67.08
2023-10-14T16:45:48.254Z,67.38
2023-10-14T16:50:57.308Z,67.46
2023-10-14T16:56:05.729Z,67.52
2023-10-14T17:01:13.416Z,67.69
2023-10-14T17:06:21.591Z,68.04
2023-10-14T17:11:29.240Z,68.21
2023-10-14T17:16:39.633Z,68.98
2023-10-14T17:21:48.030Z,70.40
2023-10-14T17:26:56.250Z,71.48
2023-10-14T17:32:07.196Z,72.43
2023-10-14T17:37:16.192Z,73.08
2023-10-14T17:42:24.101Z,73.71
2023-10-14T17:47:32.520Z,74.21
2023-10-14T17:52:40.756Z,74.77
2023-10-14T17:57:49.005Z,75.69
2023-10-14T18:02:57.879Z,75.98
2023-10-14T18:08:07.177Z,76.68
2023-10-14T18:13:16.834Z,77.14
2023-10-14T18:18:26.501Z,77.58
2023-10-14T18:23:38.895Z,78.49
2023-10-14T18:28:47.067Z,79.02
2023-10-14T18:33:56.236Z,78.61
2023-10-14T18:39:03.766Z,77.93
2023-10-14T18:44:12.835Z,74.70
2023-10-14T18:49:20.460Z,71.51
2023-10-14T18:54:33.129Z,71.80
2023-10-14T18:59:40.954Z,71.98
2023-10-14T19:04:48.673Z,73.70
2023-10-14T19:09:58.000Z,74.42
2023-10-14T19:15:08.141Z,74.98
2023-10-14T19:20:18.229Z,75.39
2023-10-14T19:25:26.644Z,75.03
2023-10-14T19:30:36.875Z,75.69
2023-10-14T19:35:45.618Z,76.18
2023-10-14T19:41:02.835Z,76.63
2023-10-14T19:46:14.114Z,77.35
2023-10-14T19:51:22.757Z,77.82
2023-10-14T19:56:30.286Z,77.41
2023-10-14T20:01:40.672Z,77.60
2023-10-14T20:06:51.804Z,77.60
2023-10-14T20:11:59.752Z,77.49
2023-10-14T20:17:07.860Z,77.56
2023-10-14T20:22:17.438Z,78.03
2023-10-14T20:27:25.959Z,78.80
2023-10-14T20:32:35.963Z,79.44
2023-10-14T20:37:43.955Z,80.54
2023-10-14T20:42:52.530Z,82.19
2023-10-14T20:48:03.319Z,83.51
2023-10-14T20:53:11.351Z,84.93
2023-10-14T20:58:19.219Z,86.13
2023-10-14T21:03:28.358Z,86.29
2023-10-14T21:08:36.605Z,86.99
2023-10-14T21:13:44.668Z,88.13
2023-10-14T21:18:55.164Z,89.27
2023-10-14T21:24:03.358Z,90.01
2023-10-14T21:29:10.992Z,90.85
2023-10-14T21:34:18.978Z,92.37
2023-10-14T21:39:28.623Z,93.24
2023-10-14T21:44:39.504Z,93.87
2023-10-14T21:49:50.950Z,94.30
2023-10-14T21:54:58.615Z,94.51
2023-10-14T22:00:19.140Z,94.54
2023-10-14T22:05:29.024Z,95.01
2023-10-14T22:10:37.662Z,95.37
2023-10-14T22:15:46.818Z,95.64
2023-10-14T22:20:54.592Z,95.52
2023-10-14T22:40:26.388Z,96.66
2023-10-14T22:45:35.031Z,96.74
2023-10-14T22:50:42.727Z,96.70
2023-10-14T22:55:50.696Z,96.48
2023-10-14T23:00:58.081Z,96.84
2023-10-14T23:06:07.402Z,97.32
2023-10-14T23:11:14.902Z,97.45
2023-10-14T23:16:22.568Z,97.53
2023-10-14T23:21:30.333Z,97.93
2023-10-14T23:26:37.932Z,97.72
2023-10-14T23:31:45.529Z,97.83
2023-10-14T23:36:53.064Z,97.84
2023-10-14T23:42:00.413Z,98.03
2023-10-14T23:47:07.979Z,98.08
2023-10-14T23:52:16.627Z,98.18
2023-10-14T23:57:24.245Z,98.12
